< < Back
Terminal Aerodrome Forecast


Current Version              Previous Versions:   1  2  3  4  5  6  7  8  9  

Terminal Aerodrome Forecast

501
FTUS44 KBMX 250646 AAA
TAFTCL
TAF AMD
KTCL 250646Z 2507/2606 13007KT P6SM SHRA VCTS SCT020 BKN035CB
      OVC100
      TEMPO 2508/2512 16010G20KT 3SM TSRA BKN020 OVC035CB
     FM251400 22012KT P6SM VCTS BKN025CB
     FM252300 21007KT P6SM SCT150=

Latest METAR

564
SAUS70 KWBC 252300 RRF
MTRTCL
METAR KTCL 252253Z 25010KT 7SM FEW029 27/21 A2964 RMK AO2 SLP033
T02670206


USA.gov is the U.S. government's official web portal to all federal, state and local government web resources and services.